Time;durP1;ratioP1;P1;durP2;ratioP2;P2;SDS_P1;SDS_P2;PMS_P1;PMS_P2;Temp;Humidity;BMP_temperature;BMP_pressure;BME280_temperature;BME280_humidity;BME280_pressure;Samples;Min_cycle;Max_cycle;Signal;HPM_P1;HPM_P2
2022/08/12 00:44:43;;;;;;;4.37;4.17;;;22.00;54.30;;;;;;10438347;28;20200;-80
2022/08/12 00:49:48;;;;;;;4.80;4.30;;;22.00;55.00;;;;;;10441770;28;20232;-79
2022/08/12 00:54:53;;;;;;;4.97;4.43;;;21.90;54.50;;;;;;10439023;28;20209;-79
2022/08/12 00:59:58;;;;;;;5.00;4.73;;;21.90;54.70;;;;;;10436812;28;20225;-79
2022/08/12 01:15:48;;;;;;;5.03;4.63;;;21.70;55.30;;;;;;10425345;28;20248;-77
2022/08/12 01:21:02;;;;;;;5.20;4.80;;;21.70;55.80;;;;;;10501833;22;20236;-81
2022/08/12 01:26:09;;;;;;;4.43;4.13;;;21.60;55.80;;;;;;10546443;28;20224;-78
2022/08/12 01:31:12;;;;;;;4.80;4.50;;;21.60;56.20;;;;;;10531946;28;20220;-81
2022/08/12 01:36:17;;;;;;;4.80;4.50;;;21.60;56.20;;;;;;10576325;28;20199;-81
2022/08/12 01:41:25;;;;;;;4.60;4.30;;;21.50;56.40;;;;;;10567428;28;20741;-81
2022/08/12 01:46:47;;;;;;;4.27;4.07;;;21.40;56.80;;;;;;10569420;28;20205;-79
2022/08/12 01:51:56;;;;;;;4.37;4.17;;;21.40;56.60;;;;;;10709931;22;20219;-80
2022/08/12 01:57:10;;;;;;;4.47;4.27;;;21.40;57.00;;;;;;10521102;28;20196;-79
2022/08/12 02:02:17;;;;;;;4.60;4.30;;;21.30;57.20;;;;;;10557947;28;20253;-80
2022/08/12 02:13:10;;;;;;;5.00;4.70;;;21.10;57.50;;;;;;10581289;28;20222;-79
2022/08/12 02:18:24;;;;;;;4.87;4.57;;;21.10;57.80;;;;;;10578570;28;20278;-80
2022/08/12 02:23:27;;;;;;;5.33;5.00;;;21.00;58.00;;;;;;10572144;28;20223;-79
2022/08/12 02:28:31;;;;;;;4.90;4.60;;;20.90;58.40;;;;;;10559611;28;20200;-79
2022/08/12 02:33:34;;;;;;;5.30;4.80;;;20.90;58.40;;;;;;10589608;28;20219;-80
2022/08/12 02:38:41;;;;;;;5.13;4.60;;;20.80;58.80;;;;;;10593242;28;20195;-81
2022/08/12 02:43:51;;;;;;;4.67;4.47;;;20.80;59.10;;;;;;10559771;28;20216;-80
2022/08/12 02:48:58;;;;;;;5.20;4.93;;;20.70;59.50;;;;;;10583632;28;20195;-81
2022/08/12 02:54:02;;;;;;;5.30;4.80;;;20.80;59.00;;;;;;10556665;28;20246;-80
2022/08/12 02:59:10;;;;;;;5.10;4.80;;;20.80;59.00;;;;;;10591889;28;20719;-81
2022/08/12 03:04:18;;;;;;;4.70;4.40;;;20.80;59.60;;;;;;10560244;28;20249;-80
2022/08/12 03:09:23;;;;;;;4.80;4.40;;;20.80;59.50;;;;;;10589289;28;20550;-80
2022/08/12 03:14:29;;;;;;;5.47;5.07;;;20.80;59.70;;;;;;10591921;28;20385;-80
2022/08/12 03:19:31;;;;;;;5.50;5.20;;;20.80;59.40;;;;;;10552606;28;20239;-80
2022/08/12 03:24:33;;;;;;;5.90;5.40;;;20.80;59.90;;;;;;10568084;28;20194;-80
2022/08/12 03:29:38;;;;;;;5.30;5.00;;;20.70;59.80;;;;;;10598737;28;20215;-80
2022/08/12 03:34:42;;;;;;;5.47;5.07;;;20.70;59.50;;;;;;10569290;28;20220;-79
2022/08/12 03:39:44;;;;;;;4.20;4.00;;;20.70;59.50;;;;;;10576558;28;20293;-78
2022/08/12 04:01:13;;;;;;;5.37;5.07;;;20.40;60.20;;;;;;10567752;28;20234;-81
2022/08/12 04:06:15;;;;;;;5.73;5.33;;;20.40;60.00;;;;;;10563432;28;20290;-78
2022/08/12 04:16:39;;;;;;;6.30;5.90;;;20.20;60.50;;;;;;10564022;28;20195;-78
2022/08/12 04:21:41;;;;;;;5.63;5.23;;;20.20;60.10;;;;;;10546750;28;20218;-78
2022/08/12 04:26:43;;;;;;;5.70;5.37;;;20.20;60.70;;;;;;10569153;28;20195;-79
2022/08/12 04:31:48;;;;;;;6.30;5.77;;;20.20;61.40;;;;;;10566916;28;20215;-78
2022/08/12 04:36:50;;;;;;;6.37;5.97;;;20.10;61.10;;;;;;10538974;28;20196;-82
2022/08/12 04:41:52;;;;;;;5.83;5.43;;;20.20;61.30;;;;;;10571930;28;20241;-79
2022/08/12 04:46:56;;;;;;;6.57;5.90;;;20.20;61.00;;;;;;10577241;28;20199;-80
2022/08/12 04:51:59;;;;;;;6.30;5.90;;;20.10;60.90;;;;;;10548857;28;20219;-80
2022/08/12 04:57:02;;;;;;;6.30;5.90;;;20.10;60.90;;;;;;10552700;28;20203;-80
2022/08/12 05:02:05;;;;;;;5.70;5.30;;;20.00;61.40;;;;;;10543474;28;20256;-79
2022/08/12 05:07:08;;;;;;;5.90;5.40;;;20.00;62.00;;;;;;10565141;28;20227;-80
2022/08/12 05:12:12;;;;;;;6.30;5.80;;;20.00;62.00;;;;;;10581627;28;20242;-79
2022/08/12 05:17:15;;;;;;;8.23;6.10;;;20.00;62.30;;;;;;10575618;28;20202;-79
2022/08/12 05:22:18;;;;;;;5.83;5.53;;;20.00;62.70;;;;;;10562030;28;20219;-78
2022/08/12 05:27:21;;;;;;;6.10;5.70;;;20.00;63.10;;;;;;10566202;28;20195;-79
2022/08/12 05:32:24;;;;;;;5.60;5.30;;;20.10;63.30;;;;;;10566257;28;20227;-80
2022/08/12 05:37:27;;;;;;;5.83;5.23;;;20.10;63.50;;;;;;10551987;28;20634;-78
2022/08/12 05:42:30;;;;;;;6.40;5.83;;;20.10;63.10;;;;;;10558089;28;20214;-79
2022/08/12 05:47:34;;;;;;;5.83;5.23;;;20.20;63.80;;;;;;10553442;28;20206;-80
2022/08/12 05:52:36;;;;;;;5.87;5.47;;;20.20;63.70;;;;;;10542382;28;20318;-79
2022/08/12 05:57:38;;;;;;;7.20;5.30;;;20.30;63.30;;;;;;10555309;28;20253;-80
2022/08/12 06:02:41;;;;;;;6.40;6.00;;;20.40;63.00;;;;;;10539940;28;20212;-80
2022/08/12 06:07:45;;;;;;;6.07;5.63;;;20.40;63.60;;;;;;10535183;28;20825;-80
2022/08/12 06:12:48;;;;;;;5.70;5.30;;;20.50;63.30;;;;;;10536037;28;20216;-79
2022/08/12 06:17:53;;;;;;;5.83;5.43;;;20.50;63.00;;;;;;10565403;28;20226;-80
2022/08/12 06:22:55;;;;;;;7.03;6.53;;;20.60;63.50;;;;;;10541057;28;20563;-81
2022/08/12 06:27:58;;;;;;;6.57;6.07;;;20.70;62.80;;;;;;10562979;28;20211;-79
2022/08/12 06:33:06;;;;;;;5.97;5.57;;;20.70;62.40;;;;;;10561881;28;20219;-81
2022/08/12 06:38:21;;;;;;;6.30;5.90;;;20.80;62.40;;;;;;10556416;28;20242;-79
2022/08/12 06:43:23;;;;;;;6.47;5.90;;;21.00;62.10;;;;;;10517553;28;20239;-82
2022/08/12 06:48:30;;;;;;;7.17;6.57;;;21.10;61.60;;;;;;10554948;28;20198;-81
2022/08/12 06:53:35;;;;;;;6.83;6.10;;;21.20;61.40;;;;;;10545641;28;20211;-81
2022/08/12 06:58:38;;;;;;;6.53;6.00;;;21.30;61.20;;;;;;10564754;28;20231;-82
2022/08/12 07:03:41;;;;;;;7.27;6.67;;;21.40;61.70;;;;;;10545887;28;20747;-81
2022/08/12 07:08:44;;;;;;;7.20;6.70;;;21.50;61.40;;;;;;10537359;28;20204;-80
2022/08/12 07:13:49;;;;;;;19.40;17.37;;;21.70;61.10;;;;;;10555096;28;20702;-81
2022/08/12 07:18:54;;;;;;;7.63;6.87;;;21.80;59.80;;;;;;10554197;28;20203;-80
2022/08/12 07:23:56;;;;;;;6.43;6.03;;;22.00;59.40;;;;;;10471094;22;20228;-76
2022/08/12 07:28:58;;;;;;;6.40;5.80;;;22.10;58.50;;;;;;10425966;28;20201;-76
2022/08/12 07:34:02;;;;;;;5.10;4.70;;;22.30;58.70;;;;;;10409221;28;20618;-78
2022/08/12 07:39:04;;;;;;;11.13;7.07;;;22.60;57.70;;;;;;10405148;28;20805;-78
2022/08/12 07:44:08;;;;;;;9.83;7.40;;;23.10;57.40;;;;;;10424133;28;20215;-78
2022/08/12 07:49:14;;;;;;;8.70;5.60;;;23.50;56.40;;;;;;10422359;28;20197;-79
2022/08/12 07:54:16;;;;;;;8.27;5.70;;;24.00;55.10;;;;;;10408706;28;20217;-78
2022/08/12 07:59:18;;;;;;;6.13;5.83;;;24.50;54.50;;;;;;10421900;28;20197;-78
2022/08/12 08:09:41;;;;;;;5.20;4.90;;;25.30;52.00;;;;;;10433571;28;20201;-79
2022/08/12 08:14:45;;;;;;;5.93;5.53;;;25.60;53.10;;;;;;10423076;28;20217;-78
2022/08/12 08:19:51;;;;;;;5.77;5.37;;;25.90;52.10;;;;;;10470503;28;20200;-78
2022/08/12 08:24:56;;;;;;;7.53;7.13;;;26.20;52.10;;;;;;10437662;28;20199;-77
2022/08/12 08:29:58;;;;;;;13.63;5.60;;;26.40;51.00;;;;;;10452145;28;20760;-79
2022/08/12 08:35:02;;;;;;;6.23;5.10;;;26.70;50.30;;;;;;10449675;28;20260;-79
2022/08/12 08:45:22;;;;;;;6.00;5.60;;;27.60;49.50;;;;;;10451197;28;20681;-79
2022/08/12 08:50:26;;;;;;;6.10;5.80;;;28.10;48.30;;;;;;10456211;28;20217;-79
2022/08/12 08:55:28;;;;;;;5.50;5.10;;;28.50;46.20;;;;;;10455919;28;20228;-79
2022/08/12 09:00:30;;;;;;;5.47;5.07;;;28.60;46.60;;;;;;10450157;28;20225;-79
2022/08/12 09:05:34;;;;;;;5.43;5.23;;;28.50;46.90;;;;;;10445682;28;20201;-79
2022/08/12 09:10:37;;;;;;;4.70;4.50;;;28.50;45.70;;;;;;10440149;28;20255;-79
2022/08/12 09:15:40;;;;;;;5.40;5.20;;;28.20;44.70;;;;;;10454004;28;20726;-79
2022/08/12 09:20:44;;;;;;;5.20;5.00;;;27.90;45.60;;;;;;10448014;28;20264;-79
2022/08/12 09:25:47;;;;;;;5.20;5.00;;;27.80;46.10;;;;;;10440047;28;20247;-79
2022/08/12 09:30:49;;;;;;;6.10;5.70;;;27.80;45.90;;;;;;10434164;28;20721;-79
2022/08/12 09:35:53;;;;;;;5.50;5.30;;;27.90;44.80;;;;;;10452107;28;20217;-79
2022/08/12 09:40:56;;;;;;;6.33;5.93;;;28.20;45.60;;;;;;10437489;28;20217;-79
2022/08/12 09:45:58;;;;;;;5.30;4.87;;;28.60;44.30;;;;;;10430250;28;20198;-78
2022/08/12 09:51:01;;;;;;;5.13;4.83;;;29.00;44.00;;;;;;10444699;28;20230;-78
2022/08/12 09:56:04;;;;;;;5.03;4.70;;;29.30;43.60;;;;;;10451098;28;20264;-77
2022/08/12 10:01:06;;;;;;;5.27;4.87;;;29.70;43.50;;;;;;10455507;28;20278;-77
2022/08/12 10:06:10;;;;;;;5.10;4.80;;;30.10;41.60;;;;;;10455647;28;20728;-78
2022/08/12 10:16:42;;;;;;;5.43;5.10;;;30.50;42.20;;;;;;10388782;28;20810;-77
2022/08/12 10:21:46;;;;;;;4.93;4.63;;;30.60;41.30;;;;;;10436668;28;20318;-77
2022/08/12 10:32:11;;;;;;;5.63;5.33;;;30.30;41.80;;;;;;10455610;28;20312;-77
2022/08/12 10:37:15;;;;;;;5.20;4.83;;;29.80;42.80;;;;;;10449835;28;20201;-77
2022/08/12 10:47:37;;;;;;;5.00;4.60;;;28.90;43.80;;;;;;10439854;28;20193;-79
2022/08/12 10:52:46;;;;;;;4.50;4.30;;;28.60;43.90;;;;;;10436188;28;20229;-77
2022/08/12 10:57:49;;;;;;;5.47;4.97;;;28.40;43.20;;;;;;10456908;28;20225;-79
2022/08/12 11:02:53;;;;;;;5.30;5.00;;;28.20;44.60;;;;;;10445856;28;20213;-78
2022/08/12 11:07:56;;;;;;;4.00;3.80;;;28.10;44.30;;;;;;10463839;28;20213;-79
2022/08/12 11:12:59;;;;;;;5.30;5.00;;;28.00;44.30;;;;;;10447510;28;20225;-78
2022/08/12 11:18:01;;;;;;;5.40;5.10;;;27.90;45.20;;;;;;10448823;28;20323;-79
2022/08/12 11:23:04;;;;;;;2.67;2.53;;;27.80;44.20;;;;;;10460965;28;20619;-78
2022/08/12 11:28:06;;;;;;;6.13;4.87;;;27.60;44.80;;;;;;10462561;28;20204;-78
2022/08/12 11:33:09;;;;;;;4.90;4.60;;;27.50;44.70;;;;;;10445698;28;20263;-77
2022/08/12 11:38:12;;;;;;;5.10;4.80;;;27.40;44.50;;;;;;10464401;28;20201;-78
2022/08/12 11:43:14;;;;;;;4.53;4.33;;;27.30;44.60;;;;;;10466533;28;20236;-78
2022/08/12 11:48:17;;;;;;;4.33;4.03;;;27.20;44.00;;;;;;10461574;28;20205;-77
2022/08/12 11:53:20;;;;;;;4.97;4.77;;;27.30;45.00;;;;;;10463972;28;20239;-77
2022/08/12 11:58:23;;;;;;;4.97;4.60;;;27.20;44.00;;;;;;10440089;28;20205;-79
2022/08/12 12:03:25;;;;;;;3.87;3.57;;;27.20;44.30;;;;;;10464973;28;20221;-79
2022/08/12 12:08:30;;;;;;;4.63;4.43;;;27.20;43.80;;;;;;10469105;28;20200;-79
2022/08/12 12:13:32;;;;;;;4.70;4.50;;;27.20;44.10;;;;;;10462484;28;20275;-79
2022/08/12 12:18:34;;;;;;;5.07;4.87;;;27.10;43.40;;;;;;10440697;28;20216;-78
2022/08/12 12:23:38;;;;;;;5.37;5.03;;;27.10;43.80;;;;;;10441041;28;20266;-79
2022/08/12 12:28:41;;;;;;;4.03;3.30;;;27.10;43.10;;;;;;10459224;28;20201;-79
2022/08/12 12:33:43;;;;;;;4.63;4.33;;;27.10;43.90;;;;;;10459237;28;20285;-78
2022/08/12 12:38:46;;;;;;;3.83;3.63;;;27.10;43.80;;;;;;10432521;28;20206;-77
2022/08/12 12:43:49;;;;;;;5.43;5.13;;;27.20;43.10;;;;;;10427251;28;20218;-77
2022/08/12 12:48:51;;;;;;;4.00;3.90;;;27.50;42.10;;;;;;10432171;28;20236;-77
2022/08/12 12:53:55;;;;;;;5.33;5.03;;;27.80;43.20;;;;;;10449806;28;20669;-77
2022/08/12 12:58:57;;;;;;;4.30;4.00;;;27.90;42.50;;;;;;10445048;28;20198;-78
2022/08/12 13:03:59;;;;;;;4.30;4.10;;;28.00;44.40;;;;;;10444881;28;20313;-77
2022/08/12 13:09:03;;;;;;;3.50;3.40;;;28.10;43.80;;;;;;10446383;28;20198;-77
2022/08/12 13:14:06;;;;;;;4.33;4.00;;;28.20;43.40;;;;;;10447802;28;20283;-79
2022/08/12 13:19:08;;;;;;;4.07;3.70;;;28.20;43.20;;;;;;10445790;28;20251;-81
2022/08/12 13:24:13;;;;;;;5.10;4.90;;;28.20;42.60;;;;;;10488907;22;20693;-79
2022/08/12 13:29:15;;;;;;;5.03;4.80;;;28.20;43.00;;;;;;10490598;28;20204;-80
2022/08/12 13:34:20;;;;;;;4.60;4.30;;;28.30;42.20;;;;;;10498755;28;20242;-80
2022/08/12 13:39:24;;;;;;;4.80;4.37;;;28.30;43.00;;;;;;10484330;28;20192;-80
2022/08/12 13:44:26;;;;;;;4.27;3.87;;;28.30;42.30;;;;;;10499204;28;20311;-80
2022/08/12 13:49:30;;;;;;;4.93;4.73;;;28.40;42.00;;;;;;10506723;28;20203;-80
2022/08/12 13:54:34;;;;;;;5.03;4.70;;;28.30;44.20;;;;;;10490247;28;20326;-79
2022/08/12 13:59:36;;;;;;;5.10;4.80;;;28.30;42.30;;;;;;10477961;28;20215;-81
2022/08/12 14:04:39;;;;;;;4.87;4.57;;;28.20;42.60;;;;;;10520087;28;20280;-81
2022/08/12 14:15:04;;;;;;;4.60;4.40;;;28.10;42.90;;;;;;10503685;28;20217;-82
2022/08/12 14:20:13;;;;;;;5.03;4.73;;;28.00;45.50;;;;;;10491580;28;20197;-80
2022/08/12 14:25:16;;;;;;;4.33;4.03;;;27.90;43.40;;;;;;10482514;28;20248;-82
2022/08/12 14:30:19;;;;;;;5.80;5.50;;;27.90;43.10;;;;;;10487860;28;20216;-82
2022/08/12 14:35:21;;;;;;;4.90;4.70;;;27.80;44.40;;;;;;10485502;28;20225;-81
2022/08/12 14:40:24;;;;;;;4.30;4.00;;;27.70;44.20;;;;;;10500002;28;20232;-81
2022/08/12 14:45:27;;;;;;;4.90;4.70;;;27.70;44.50;;;;;;10491639;28;20623;-83
2022/08/12 14:50:29;;;;;;;5.57;5.17;;;27.70;42.60;;;;;;10487246;28;20216;-82
2022/08/12 14:55:33;;;;;;;5.10;4.90;;;27.70;43.50;;;;;;10501734;28;20378;-82
2022/08/12 15:05:57;;;;;;;4.50;4.30;;;28.10;42.60;;;;;;10499217;28;20742;-81
2022/08/12 15:11:02;;;;;;;4.60;4.30;;;28.30;42.90;;;;;;10490748;28;20209;-82
2022/08/12 15:16:04;;;;;;;4.07;3.97;;;28.40;41.80;;;;;;10496281;28;20217;-80
2022/08/12 15:21:07;;;;;;;4.60;4.40;;;28.40;43.00;;;;;;10497033;28;20225;-80
2022/08/12 15:26:12;;;;;;;4.60;4.40;;;28.30;43.20;;;;;;10498351;28;20208;-79
2022/08/12 15:31:16;;;;;;;4.37;4.17;;;28.20;43.90;;;;;;10466894;28;20315;-79
2022/08/12 15:36:19;;;;;;;4.57;4.37;;;28.00;43.50;;;;;;10492232;28;20232;-80
2022/08/12 15:41:24;;;;;;;4.20;4.10;;;27.80;43.60;;;;;;10496427;28;20225;-80
2022/08/12 15:46:31;;;;;;;4.53;4.13;;;27.60;45.60;;;;;;10505505;28;20579;-80
2022/08/12 15:51:36;;;;;;;4.40;4.20;;;27.60;43.50;;;;;;10495719;28;20224;-79
2022/08/12 15:56:40;;;;;;;4.17;3.97;;;27.80;42.70;;;;;;10508934;28;20224;-80
2022/08/12 16:01:42;;;;;;;3.97;3.87;;;27.90;43.60;;;;;;10493955;28;20226;-80
2022/08/12 16:06:44;;;;;;;4.17;3.87;;;28.00;42.80;;;;;;10490074;28;20283;-79
2022/08/12 16:11:48;;;;;;;4.30;3.90;;;28.10;42.60;;;;;;10518899;28;20300;-80
2022/08/12 16:16:50;;;;;;;4.53;4.33;;;28.10;42.40;;;;;;10494711;28;20223;-79
2022/08/12 16:21:52;;;;;;;5.03;4.83;;;28.00;43.60;;;;;;10492927;28;20226;-80
2022/08/12 16:26:56;;;;;;;3.93;3.73;;;27.80;44.10;;;;;;10491690;28;20249;-80
2022/08/12 16:31:59;;;;;;;4.47;4.17;;;27.60;42.90;;;;;;10512896;28;20564;-80
2022/08/12 16:37:01;;;;;;;4.13;3.93;;;27.40;43.40;;;;;;10515629;28;20680;-79
2022/08/12 16:42:05;;;;;;;4.60;4.40;;;27.20;45.90;;;;;;10491297;28;20230;-79
2022/08/12 16:47:07;;;;;;;4.40;4.20;;;27.00;46.60;;;;;;10503203;28;20252;-80
2022/08/12 16:52:13;;;;;;;4.73;4.53;;;26.90;45.30;;;;;;10468066;28;20213;-79
2022/08/12 16:57:17;;;;;;;4.00;3.90;;;26.80;45.90;;;;;;10480007;28;20297;-79
2022/08/12 17:02:19;;;;;;;4.30;4.10;;;26.70;46.60;;;;;;10488323;28;20248;-80
2022/08/12 17:07:21;;;;;;;4.20;4.00;;;26.60;47.80;;;;;;10517506;28;20618;-79
2022/08/12 17:12:27;;;;;;;4.40;4.20;;;26.50;47.40;;;;;;10518845;28;20257;-80
2022/08/12 17:17:32;;;;;;;3.70;3.50;;;26.40;47.00;;;;;;10472770;28;20596;-78
2022/08/12 17:22:36;;;;;;;3.63;3.53;;;26.40;46.60;;;;;;10505480;28;20232;-80
2022/08/12 17:27:45;;;;;;;3.87;3.70;;;26.40;47.90;;;;;;10479802;28;20203;-79
2022/08/12 17:32:47;;;;;;;5.27;4.97;;;26.40;45.20;;;;;;10516744;28;20216;-78
2022/08/12 17:37:49;;;;;;;5.27;5.00;;;26.30;48.70;;;;;;10491557;28;20251;-78
2022/08/12 17:42:54;;;;;;;4.43;4.20;;;26.30;52.90;;;;;;10519848;28;20227;-79
2022/08/12 17:48:02;;;;;;;3.30;3.20;;;26.20;50.00;;;;;;10504092;28;20200;-77
2022/08/12 17:53:04;;;;;;;3.90;3.60;;;26.20;45.60;;;;;;10483348;28;20229;-79
2022/08/12 17:58:08;;;;;;;3.73;3.63;;;26.20;44.50;;;;;;10512455;28;20201;-79
2022/08/12 18:03:12;;;;;;;3.70;3.50;;;26.20;44.40;;;;;;10500675;28;20271;-79
2022/08/12 18:08:15;;;;;;;3.50;3.30;;;26.10;47.20;;;;;;10484455;28;20197;-79
2022/08/12 18:13:21;;;;;;;5.00;3.60;;;26.00;52.80;;;;;;10500187;28;20262;-79
2022/08/12 18:18:25;;;;;;;3.33;3.13;;;26.00;50.10;;;;;;10488528;28;20197;-79
2022/08/12 18:23:27;;;;;;;3.07;2.97;;;25.90;48.80;;;;;;10499655;28;20282;-79
2022/08/12 18:28:30;;;;;;;3.50;3.17;;;25.80;50.60;;;;;;10510757;28;20227;-80
2022/08/12 18:33:33;;;;;;;3.77;3.43;;;25.70;47.10;;;;;;10473979;28;20270;-80
2022/08/12 18:38:35;;;;;;;2.77;2.67;;;25.60;46.50;;;;;;10509170;28;20204;-79
2022/08/12 18:43:41;;;;;;;2.03;1.93;;;25.60;47.80;;;;;;10464486;28;20651;-82
2022/08/12 18:48:44;;;;;;;3.07;2.97;;;25.50;47.70;;;;;;10483639;28;20254;-79
2022/08/12 18:53:46;;;;;;;3.27;3.00;;;25.40;47.30;;;;;;10493703;28;20595;-81
2022/08/12 18:58:50;;;;;;;3.07;2.97;;;25.30;47.20;;;;;;10504191;28;20227;-82
2022/08/12 19:03:59;;;;;;;3.40;3.30;;;25.10;47.70;;;;;;10479765;28;20220;-82
2022/08/12 19:09:01;;;;;;;3.90;3.70;;;25.00;48.20;;;;;;10495725;28;20204;-79
2022/08/12 19:14:26;;;;;;;4.00;3.80;;;25.00;47.40;;;;;;10495675;28;20684;-80
2022/08/12 19:19:29;;;;;;;3.80;3.47;;;24.80;47.10;;;;;;10498284;28;20269;-80
2022/08/12 19:29:52;;;;;;;3.40;3.10;;;24.70;48.30;;;;;;10485414;28;20204;-79
2022/08/12 19:34:55;;;;;;;3.10;3.00;;;24.60;48.20;;;;;;10585174;28;20282;-79
2022/08/12 19:39:59;;;;;;;6.83;4.00;;;24.60;48.00;;;;;;10580135;28;20654;-79
2022/08/12 19:45:03;;;;;;;3.40;3.23;;;24.60;48.80;;;;;;10534846;28;20596;-79
2022/08/12 19:50:06;;;;;;;3.57;3.37;;;24.60;49.10;;;;;;10569553;28;20196;-79
2022/08/12 19:55:11;;;;;;;3.50;3.30;;;24.60;49.40;;;;;;10569586;28;20272;-79
2022/08/12 20:00:16;;;;;;;3.30;3.20;;;24.60;49.60;;;;;;10589846;28;20229;-78
2022/08/12 20:05:20;;;;;;;3.93;3.63;;;24.60;50.10;;;;;;10584804;28;20211;-79
2022/08/12 20:10:23;;;;;;;4.37;3.70;;;24.60;50.40;;;;;;10561760;28;20199;-79
2022/08/12 20:15:27;;;;;;;2.80;2.60;;;24.50;50.30;;;;;;10570183;28;20264;-80
2022/08/12 20:20:29;;;;;;;3.07;2.97;;;24.50;50.00;;;;;;10579112;28;20227;-78
2022/08/12 20:25:31;;;;;;;3.30;3.20;;;24.50;50.60;;;;;;10581040;28;20218;-79
2022/08/12 20:30:35;;;;;;;3.10;2.80;;;24.40;50.30;;;;;;10567433;28;20237;-78
2022/08/12 20:35:37;;;;;;;3.40;3.20;;;24.40;50.90;;;;;;10569547;28;20239;-79
2022/08/12 20:40:40;;;;;;;3.40;3.20;;;24.30;50.90;;;;;;10567166;28;20195;-81
2022/08/12 20:45:45;;;;;;;3.43;3.20;;;24.20;51.50;;;;;;10571807;28;20651;-79
2022/08/12 20:50:47;;;;;;;2.80;2.70;;;24.10;52.20;;;;;;10571686;28;20211;-79
2022/08/12 20:55:49;;;;;;;3.03;2.93;;;24.00;51.70;;;;;;10575621;28;20570;-79
2022/08/12 21:00:53;;;;;;;3.13;3.03;;;24.00;52.20;;;;;;10577996;28;20703;-79
2022/08/12 21:11:15;;;;;;;3.37;2.80;;;23.80;52.10;;;;;;10595442;28;20211;-80
2022/08/12 21:16:19;;;;;;;3.00;2.80;;;23.70;52.60;;;;;;10571375;28;20215;-80
2022/08/12 21:21:22;;;;;;;3.23;3.00;;;23.60;52.80;;;;;;10571045;28;20219;-80
2022/08/12 21:26:25;;;;;;;3.30;3.20;;;23.60;53.00;;;;;;10570933;28;20193;-80
2022/08/12 21:31:30;;;;;;;3.67;3.50;;;23.40;52.80;;;;;;10550265;28;20223;-80
2022/08/12 21:36:34;;;;;;;2.90;2.80;;;23.30;53.30;;;;;;10594913;28;20223;-80
2022/08/12 21:41:36;;;;;;;3.23;3.13;;;23.20;53.00;;;;;;10567194;28;20256;-79
2022/08/12 21:46:43;;;;;;;3.87;3.63;;;23.10;53.50;;;;;;10583590;28;20270;-78
2022/08/12 21:51:48;;;;;;;3.40;3.10;;;23.00;54.30;;;;;;10567887;28;20215;-78
2022/08/12 21:56:51;;;;;;;4.03;3.20;;;22.90;54.50;;;;;;10573956;28;20216;-79
2022/08/12 22:01:55;;;;;;;3.23;3.03;;;22.90;54.50;;;;;;10579288;28;20309;-78
2022/08/12 22:06:57;;;;;;;3.40;3.30;;;22.80;54.50;;;;;;10583483;28;20282;-77
2022/08/12 22:12:30;;;;;;;3.17;3.07;;;22.70;54.20;;;;;;10581831;28;20237;-77
2022/08/12 22:17:32;;;;;;;3.30;3.20;;;22.70;54.50;;;;;;10574627;28;20214;-77
2022/08/12 22:22:34;;;;;;;3.87;3.57;;;22.60;54.40;;;;;;10576264;28;20223;-77
2022/08/12 22:32:54;;;;;;;2.90;2.80;;;22.40;54.70;;;;;;10593036;28;20294;-78
2022/08/12 22:38:08;;;;;;;3.33;3.13;;;22.30;55.00;;;;;;10589425;28;20217;-78
2022/08/12 22:48:31;;;;;;;3.60;3.50;;;22.10;55.10;;;;;;10580325;28;20188;-79
2022/08/12 22:53:33;;;;;;;3.83;3.63;;;22.00;55.00;;;;;;10571895;28;20247;-78
2022/08/12 22:58:36;;;;;;;3.00;2.80;;;21.90;55.30;;;;;;10587053;28;20215;-77
2022/08/12 23:03:40;;;;;;;3.23;3.13;;;21.90;55.60;;;;;;10549856;28;20224;-79
2022/08/12 23:08:42;;;;;;;3.40;3.10;;;21.80;55.70;;;;;;10589792;28;20227;-79
2022/08/12 23:13:51;;;;;;;3.60;3.40;;;21.80;55.90;;;;;;10573423;28;20223;-79
2022/08/12 23:18:55;;;;;;;3.30;3.10;;;21.70;55.80;;;;;;10581963;28;20199;-79
2022/08/12 23:23:58;;;;;;;3.00;2.90;;;21.70;55.50;;;;;;10585829;28;20228;-78
2022/08/12 23:29:15;;;;;;;3.33;3.13;;;21.70;55.80;;;;;;10565216;28;20251;-77
2022/08/12 23:34:19;;;;;;;3.40;3.10;;;21.60;56.50;;;;;;10548495;28;20215;-78
2022/08/12 23:39:22;;;;;;;3.47;3.27;;;21.60;56.70;;;;;;10583695;28;20212;-78
2022/08/12 23:44:25;;;;;;;3.00;2.90;;;21.60;56.90;;;;;;10558355;28;20207;-77
2022/08/12 23:49:30;;;;;;;3.37;3.17;;;21.60;56.30;;;;;;10578894;28;20238;-77
2022/08/12 23:54:35;;;;;;;3.10;3.00;;;21.50;57.00;;;;;;10566456;28;20553;-78
2022/08/12 23:59:37;;;;;;;3.27;3.17;;;21.50;57.10;;;;;;10557716;28;20295;-78
